createdAt,value
2017-07-29T00:01:19.473Z,99.90
2017-07-29T00:03:46.964Z,99.90
2017-07-29T00:06:14.430Z,99.90
2017-07-29T00:08:41.941Z,99.90
2017-07-29T00:11:10.188Z,99.90
2017-07-29T00:13:37.698Z,99.90
2017-07-29T00:16:05.181Z,99.90
2017-07-29T00:18:32.696Z,99.90
2017-07-29T00:21:00.950Z,99.90
2017-07-29T00:23:28.426Z,99.90
2017-07-29T00:25:56.855Z,99.90
2017-07-29T00:28:24.355Z,99.90
2017-07-29T00:30:52.637Z,99.90
2017-07-29T00:33:20.893Z,99.90
2017-07-29T00:35:48.381Z,99.90
2017-07-29T00:38:16.628Z,99.90
2017-07-29T00:40:44.122Z,99.90
2017-07-29T00:43:11.596Z,99.90
2017-07-29T00:45:39.096Z,99.90
2017-07-29T00:48:06.572Z,99.90
2017-07-29T00:50:34.837Z,99.90
2017-07-29T00:53:02.320Z,99.90
2017-07-29T00:55:30.574Z,99.90
2017-07-29T00:57:58.060Z,99.90
2017-07-29T01:00:25.544Z,99.90
2017-07-29T01:02:53.040Z,99.90
2017-07-29T01:05:20.528Z,99.90
2017-07-29T01:07:48.792Z,99.90
2017-07-29T01:10:16.277Z,99.90
2017-07-29T01:12:43.759Z,99.90
2017-07-29T01:15:11.274Z,99.90
2017-07-29T01:17:39.505Z,99.40
2017-07-29T01:20:07.005Z,99.20
2017-07-29T01:22:35.252Z,99.50
2017-07-29T01:25:02.732Z,99.10
2017-07-29T01:27:31.003Z,98.60
2017-07-29T01:29:58.484Z,98.80
2017-07-29T01:32:26.734Z,99.30
2017-07-29T01:34:54.231Z,99.30
2017-07-29T01:37:21.716Z,99.10
2017-07-29T01:39:49.211Z,99.30
2017-07-29T01:42:17.477Z,99.80
2017-07-29T01:44:44.965Z,99.80
2017-07-29T01:47:13.236Z,99.90
2017-07-29T01:49:41.480Z,99.90
2017-07-29T01:52:08.993Z,99.90
2017-07-29T01:54:36.484Z,99.90
2017-07-29T01:57:04.035Z,99.90
2017-07-29T01:59:31.525Z,99.90
2017-07-29T02:01:59.020Z,99.90
2017-07-29T02:04:26.614Z,99.90
2017-07-29T02:06:54.108Z,99.90
2017-07-29T02:09:21.598Z,99.90
2017-07-29T02:11:49.076Z,99.90
2017-07-29T02:14:16.580Z,99.90
2017-07-29T02:16:44.070Z,99.90
2017-07-29T02:19:12.337Z,99.90
2017-07-29T02:21:40.580Z,99.90
2017-07-29T02:24:08.377Z,99.90
2017-07-29T02:26:36.620Z,99.90
2017-07-29T02:29:04.097Z,99.90
2017-07-29T02:31:31.599Z,99.90
2017-07-29T02:33:59.086Z,99.90
2017-07-29T02:36:26.591Z,99.90
2017-07-29T02:38:54.833Z,99.90
2017-07-29T02:41:22.300Z,99.90
2017-07-29T02:43:49.803Z,99.90
2017-07-29T02:46:17.295Z,99.90
2017-07-29T02:48:44.777Z,99.90
2017-07-29T02:51:12.266Z,99.90
2017-07-29T02:53:40.521Z,99.90
2017-07-29T02:56:08.783Z,99.90
2017-07-29T02:58:36.311Z,99.90
2017-07-29T03:01:03.793Z,99.90
2017-07-29T03:03:31.268Z,99.90
2017-07-29T03:05:58.783Z,99.90
2017-07-29T03:08:26.269Z,99.90
2017-07-29T03:10:53.769Z,99.90
2017-07-29T03:13:21.260Z,99.90
2017-07-29T03:15:48.737Z,99.90
2017-07-29T03:18:16.228Z,99.90
2017-07-29T03:20:44.469Z,99.90
2017-07-29T03:23:11.981Z,99.90
2017-07-29T03:25:39.466Z,99.90
2017-07-29T03:28:06.945Z,99.90
2017-07-29T03:30:34.445Z,99.90
2017-07-29T03:33:02.680Z,99.90
2017-07-29T03:35:30.190Z,99.90
2017-07-29T03:37:57.685Z,99.90
2017-07-29T03:40:25.159Z,99.90
2017-07-29T03:42:52.669Z,99.90
2017-07-29T03:45:20.160Z,99.90
2017-07-29T03:47:47.652Z,99.90
2017-07-29T03:50:15.136Z,99.90
2017-07-29T03:52:42.613Z,99.90
2017-07-29T03:55:10.105Z,99.90
2017-07-29T03:57:37.580Z,99.90
2017-07-29T04:00:05.081Z,99.90
2017-07-29T04:02:32.567Z,99.90
2017-07-29T04:05:00.093Z,99.90
2017-07-29T04:07:28.340Z,99.90
2017-07-29T04:09:55.853Z,99.90
2017-07-29T04:12:23.321Z,99.90
2017-07-29T04:14:50.805Z,99.90
2017-07-29T04:17:18.287Z,99.90
2017-07-29T04:19:46.531Z,99.90
2017-07-29T04:22:14.031Z,99.90
2017-07-29T04:24:41.626Z,99.90
2017-07-29T04:27:09.116Z,99.90
2017-07-29T04:29:36.645Z,99.90
2017-07-29T04:32:04.120Z,99.90
2017-07-29T04:34:31.624Z,99.90
2017-07-29T04:36:59.110Z,99.90
2017-07-29T04:39:26.631Z,99.90
2017-07-29T04:41:54.889Z,99.90
2017-07-29T04:44:22.372Z,99.90
2017-07-29T04:46:50.637Z,99.90
2017-07-29T04:49:18.884Z,99.90
2017-07-29T04:51:46.384Z,99.90
2017-07-29T04:54:14.708Z,99.90
2017-07-29T04:56:42.205Z,99.90
2017-07-29T04:59:10.469Z,99.90
2017-07-29T05:01:37.980Z,99.90
2017-07-29T05:04:05.462Z,99.90
2017-07-29T05:06:32.956Z,99.90
2017-07-29T05:09:00.440Z,99.90
2017-07-29T05:11:27.913Z,99.90
2017-07-29T05:13:55.408Z,99.90
2017-07-29T05:16:22.901Z,99.90
2017-07-29T05:18:51.144Z,99.60
2017-07-29T05:21:18.648Z,99.60
2017-07-29T05:23:46.133Z,99.00
2017-07-29T05:26:13.605Z,98.70
2017-07-29T05:28:41.118Z,97.90
2017-07-29T05:31:08.735Z,98.00
2017-07-29T05:33:37.390Z,97.00
2017-07-29T05:36:05.007Z,95.90
2017-07-29T05:38:32.683Z,95.60
2017-07-29T05:41:02.013Z,94.60
2017-07-29T05:43:34.983Z,94.70
2017-07-29T05:46:07.075Z,92.10
2017-07-29T05:48:34.812Z,92.10
2017-07-29T05:51:02.319Z,92.30
2017-07-29T05:53:30.986Z,92.00
2017-07-29T05:55:59.353Z,91.90
2017-07-29T05:58:28.018Z,91.80
2017-07-29T06:00:57.086Z,91.00
2017-07-29T06:03:25.296Z,91.00
2017-07-29T06:05:53.477Z,91.60
2017-07-29T06:08:21.803Z,91.20
2017-07-29T06:10:49.595Z,91.20
2017-07-29T06:13:19.492Z,89.10
2017-07-29T06:15:48.584Z,89.00
2017-07-29T06:18:16.267Z,88.20
2017-07-29T06:20:44.203Z,87.20
2017-07-29T06:23:12.885Z,87.20
2017-07-29T06:25:41.673Z,85.10
2017-07-29T06:28:09.589Z,81.80
2017-07-29T06:30:40.230Z,79.20
2017-07-29T06:33:08.192Z,77.40
2017-07-29T06:35:36.498Z,78.60
2017-07-29T06:38:04.773Z,78.60
2017-07-29T06:40:32.677Z,79.10
2017-07-29T06:43:00.797Z,77.80
2017-07-29T06:45:28.618Z,76.10
2017-07-29T06:47:56.202Z,78.40
2017-07-29T06:50:25.586Z,77.80
2017-07-29T06:52:53.146Z,77.70
2017-07-29T06:55:22.345Z,74.40
2017-07-29T06:57:50.278Z,73.60
2017-07-29T07:00:18.615Z,70.70
2017-07-29T07:02:47.906Z,63.90
2017-07-29T07:05:17.371Z,61.50
2017-07-29T07:07:46.072Z,61.30
2017-07-29T07:10:14.652Z,61.30
2017-07-29T07:12:42.624Z,59.50
2017-07-29T07:15:10.146Z,58.70
2017-07-29T07:17:37.616Z,58.50
2017-07-29T07:20:05.187Z,57.20
2017-07-29T07:22:32.753Z,58.80
2017-07-29T07:25:00.414Z,61.90
2017-07-29T07:27:27.917Z,62.40
2017-07-29T07:29:56.240Z,56.30
2017-07-29T07:32:23.756Z,56.20
2017-07-29T07:34:52.030Z,54.70
2017-07-29T07:37:20.367Z,50.70
2017-07-29T07:39:48.674Z,51.20
2017-07-29T07:42:17.314Z,50.40
2017-07-29T07:44:46.145Z,49.90
2017-07-29T07:47:14.117Z,52.80
2017-07-29T07:49:43.354Z,50.60
2017-07-29T07:52:13.104Z,50.00
2017-07-29T07:54:40.889Z,48.50
2017-07-29T07:57:09.220Z,49.80
2017-07-29T07:59:37.111Z,47.30
2017-07-29T08:02:04.808Z,48.50
2017-07-29T08:04:33.198Z,49.30
2017-07-29T08:07:02.086Z,53.30
2017-07-29T08:09:30.476Z,55.20
2017-07-29T08:11:58.556Z,55.20
2017-07-29T08:14:26.639Z,56.60
2017-07-29T08:16:54.141Z,57.00
2017-07-29T08:19:21.708Z,57.40
2017-07-29T08:21:49.269Z,56.50
2017-07-29T08:24:17.095Z,55.30
2017-07-29T08:26:44.568Z,55.30
2017-07-29T08:29:13.459Z,55.70
2017-07-29T08:31:40.987Z,54.10
2017-07-29T08:34:09.207Z,54.00
2017-07-29T08:36:36.731Z,55.00
2017-07-29T08:39:05.071Z,53.40
2017-07-29T08:41:33.564Z,51.10
2017-07-29T08:44:02.872Z,51.20
2017-07-29T08:46:30.984Z,51.20
2017-07-29T08:48:59.371Z,51.50
2017-07-29T08:51:26.882Z,52.00
2017-07-29T08:53:54.388Z,53.90
2017-07-29T08:56:22.056Z,53.90
2017-07-29T08:58:49.680Z,51.20
2017-07-29T09:01:18.167Z,51.30
2017-07-29T09:03:45.866Z,49.20
2017-07-29T09:06:14.468Z,48.60
2017-07-29T09:08:43.174Z,48.50
2017-07-29T09:11:10.708Z,46.00
2017-07-29T09:13:38.392Z,47.40
2017-07-29T09:16:06.776Z,46.10
2017-07-29T09:18:35.008Z,44.40
2017-07-29T09:21:02.493Z,44.30
2017-07-29T09:23:30.726Z,40.30
2017-07-29T09:25:58.220Z,40.20
2017-07-29T09:28:25.688Z,42.00
2017-07-29T09:30:53.923Z,44.70
2017-07-29T09:33:21.452Z,44.60
2017-07-29T09:35:48.940Z,43.50
2017-07-29T09:38:16.464Z,39.10
2017-07-29T09:40:43.921Z,40.20
2017-07-29T09:43:11.435Z,39.80
2017-07-29T09:45:38.900Z,39.30
2017-07-29T09:48:06.385Z,40.30
2017-07-29T09:50:34.631Z,39.10
2017-07-29T09:53:02.104Z,39.10
2017-07-29T09:55:30.365Z,39.50
2017-07-29T09:57:57.853Z,39.50
2017-07-29T10:00:25.442Z,38.60
2017-07-29T10:02:52.944Z,40.70
2017-07-29T10:05:20.419Z,44.30
2017-07-29T10:07:48.016Z,41.40
2017-07-29T10:10:15.480Z,36.40
2017-07-29T10:12:42.978Z,35.80
2017-07-29T10:15:10.444Z,37.80
2017-07-29T10:17:38.688Z,36.60
2017-07-29T10:20:06.178Z,36.60
2017-07-29T10:22:33.657Z,36.80
2017-07-29T10:25:01.134Z,37.20
2017-07-29T10:27:28.633Z,37.90
2017-07-29T10:29:56.104Z,37.70
2017-07-29T10:32:23.589Z,38.70
2017-07-29T10:34:51.052Z,36.60
2017-07-29T10:37:18.527Z,35.80
2017-07-29T10:39:46.014Z,35.30
2017-07-29T10:42:13.484Z,36.60
2017-07-29T10:44:40.979Z,36.90
2017-07-29T10:47:08.449Z,35.10
2017-07-29T10:49:35.953Z,37.40
2017-07-29T10:52:03.429Z,37.60
2017-07-29T10:54:30.903Z,37.90
2017-07-29T10:56:59.173Z,38.20
2017-07-29T10:59:27.399Z,39.50
2017-07-29T11:01:54.903Z,39.50
2017-07-29T11:04:22.371Z,37.60
2017-07-29T11:06:50.611Z,37.80
2017-07-29T11:09:18.092Z,37.70
2017-07-29T11:11:46.347Z,44.80
2017-07-29T11:14:13.835Z,44.20
2017-07-29T11:16:42.069Z,47.20
2017-07-29T11:19:09.565Z,47.20
2017-07-29T11:21:37.826Z,47.50
2017-07-29T11:24:05.288Z,47.50
2017-07-29T11:26:32.781Z,47.90
2017-07-29T11:29:00.270Z,50.00
2017-07-29T11:31:27.762Z,49.10
2017-07-29T11:33:55.229Z,50.20
2017-07-29T11:36:23.476Z,50.40
2017-07-29T11:38:50.981Z,49.80
2017-07-29T11:41:21.000Z,49.00
2017-07-29T11:43:49.257Z,50.90
2017-07-29T11:46:17.031Z,50.80
2017-07-29T11:48:45.502Z,50.50
2017-07-29T11:51:13.009Z,50.10
2017-07-29T11:53:40.541Z,47.90
2017-07-29T11:56:08.109Z,48.80
2017-07-29T11:58:35.608Z,50.80
2017-07-29T13:45:09.349Z,47.40
2017-07-29T13:47:36.857Z,47.80
2017-07-29T13:50:04.337Z,47.70
2017-07-29T13:52:31.821Z,47.30
2017-07-29T13:54:59.317Z,47.90
2017-07-29T13:57:26.814Z,48.70
2017-07-29T13:59:54.313Z,48.40
2017-07-29T14:02:22.553Z,47.70
2017-07-29T14:04:50.037Z,47.80
2017-07-29T14:07:17.516Z,48.20
2017-07-29T14:09:45.756Z,47.50
2017-07-29T14:12:13.236Z,47.40
2017-07-29T14:14:41.493Z,47.50
2017-07-29T14:17:08.971Z,47.50
2017-07-29T14:19:37.224Z,49.10
2017-07-29T14:22:04.701Z,49.10
2017-07-29T14:24:32.209Z,48.70
2017-07-29T14:26:59.698Z,47.90
2017-07-29T14:29:27.203Z,47.90
2017-07-29T14:31:54.693Z,47.80
2017-07-29T14:34:22.169Z,48.10
2017-07-29T14:36:49.682Z,48.50
2017-07-29T14:39:17.168Z,48.80
2017-07-29T14:41:44.650Z,48.50
2017-07-29T14:44:12.189Z,48.40
2017-07-29T14:46:39.665Z,48.10
2017-07-29T14:49:07.176Z,48.10
2017-07-29T14:51:34.669Z,47.10
2017-07-29T14:54:02.132Z,46.70
2017-07-29T14:56:29.618Z,47.90
2017-07-29T14:58:57.089Z,48.70
2017-07-29T15:01:25.343Z,46.50
2017-07-29T15:03:52.832Z,46.40
2017-07-29T15:06:20.305Z,48.10
2017-07-29T15:08:47.788Z,48.10
2017-07-29T15:11:15.272Z,46.90
2017-07-29T15:13:42.754Z,48.50
2017-07-29T15:16:11.020Z,48.10
2017-07-29T15:18:38.513Z,48.20
2017-07-29T15:21:06.016Z,47.70
2017-07-29T15:23:33.493Z,48.40
2017-07-29T15:26:00.954Z,49.10
2017-07-29T15:28:29.222Z,49.40
2017-07-29T15:30:56.735Z,49.30
2017-07-29T15:33:24.234Z,49.80
2017-07-29T15:35:51.722Z,49.60
2017-07-29T15:38:19.202Z,48.70
2017-07-29T15:40:46.706Z,49.80
2017-07-29T15:43:14.171Z,49.50
2017-07-29T15:45:41.644Z,49.50
2017-07-29T15:48:09.912Z,49.40
2017-07-29T15:50:37.377Z,49.40
2017-07-29T15:53:05.640Z,50.10
2017-07-29T15:55:33.113Z,50.10
2017-07-29T15:58:01.356Z,48.70
2017-07-29T16:00:28.844Z,48.60
2017-07-29T16:02:57.102Z,49.10
2017-07-29T16:05:24.585Z,49.00
2017-07-29T16:07:52.852Z,49.10
2017-07-29T16:10:21.086Z,49.90
2017-07-29T16:12:48.632Z,49.70
2017-07-29T16:15:16.100Z,48.70
2017-07-29T16:17:43.577Z,48.90
2017-07-29T16:20:11.082Z,49.50
2017-07-29T16:22:39.097Z,50.20
2017-07-29T16:25:06.866Z,49.50
2017-07-29T16:27:34.364Z,49.20
2017-07-29T16:30:02.853Z,49.20
2017-07-29T16:32:31.108Z,49.60
2017-07-29T16:34:59.339Z,51.00
2017-07-29T16:37:26.842Z,50.50
2017-07-29T16:39:54.312Z,50.30
2017-07-29T16:42:22.573Z,49.90
2017-07-29T16:44:50.042Z,49.90
2017-07-29T16:47:18.272Z,50.30
2017-07-29T16:49:45.765Z,50.10
2017-07-29T16:52:13.240Z,50.00
2017-07-29T16:54:41.516Z,50.50
2017-07-29T16:57:09.756Z,49.70
2017-07-29T16:59:37.266Z,49.70
2017-07-29T17:02:04.744Z,50.00
2017-07-29T17:04:32.232Z,51.10
2017-07-29T17:06:59.712Z,50.80
2017-07-29T17:09:27.187Z,51.50
2017-07-29T17:11:55.434Z,51.00
2017-07-29T17:14:22.920Z,51.00
2017-07-29T17:16:51.151Z,51.40
2017-07-29T17:19:18.641Z,51.30
2017-07-29T17:21:46.115Z,51.60
2017-07-29T17:24:13.604Z,51.20
2017-07-29T17:26:41.081Z,51.20
2017-07-29T17:29:08.557Z,51.80
2017-07-29T17:31:36.046Z,52.90
2017-07-29T17:34:03.516Z,52.00
2017-07-29T17:36:31.778Z,52.00
2017-07-29T17:38:59.243Z,52.00
2017-07-29T17:41:27.475Z,52.60
2017-07-29T17:43:54.968Z,52.40
2017-07-29T17:46:23.304Z,52.00
2017-07-29T17:48:50.780Z,51.50
2017-07-29T17:51:18.297Z,51.90
2017-07-29T17:53:45.790Z,51.70
2017-07-29T17:56:13.298Z,50.60
2017-07-29T17:58:41.540Z,51.60
2017-07-29T18:01:09.067Z,51.60
2017-07-29T18:03:37.227Z,51.90
2017-07-29T18:06:04.721Z,51.90
2017-07-29T18:08:32.224Z,51.70
2017-07-29T18:11:00.466Z,52.10
2017-07-29T18:13:27.932Z,52.00
2017-07-29T18:15:55.444Z,53.00
2017-07-29T18:18:22.918Z,53.30
2017-07-29T18:20:50.393Z,53.40
2017-07-29T18:23:17.885Z,54.00
2017-07-29T18:25:46.137Z,54.70
2017-07-29T18:28:13.618Z,54.60
2017-07-29T18:30:41.943Z,55.60
2017-07-29T18:33:09.423Z,55.00
2017-07-29T18:35:36.940Z,55.50
2017-07-29T18:38:04.411Z,56.00
2017-07-29T18:40:31.974Z,56.00
2017-07-29T18:42:59.448Z,57.30
2017-07-29T18:45:26.949Z,56.60
2017-07-29T18:47:55.204Z,57.90
2017-07-29T18:50:22.672Z,57.90
2017-07-29T18:52:50.159Z,59.80
2017-07-29T18:55:17.628Z,60.00
2017-07-29T18:57:45.128Z,61.10
2017-07-29T19:00:12.609Z,61.90
2017-07-29T19:02:40.080Z,62.30
2017-07-29T19:05:08.330Z,64.00
2017-07-29T19:07:35.796Z,63.80
2017-07-29T19:10:03.308Z,65.30
2017-07-29T19:12:30.786Z,65.20
2017-07-29T19:14:58.280Z,65.60
2017-07-29T19:17:25.786Z,65.90
2017-07-29T19:19:53.256Z,67.60
2017-07-29T19:22:20.744Z,66.90
2017-07-29T19:24:48.223Z,67.40
2017-07-29T19:27:16.487Z,67.60
2017-07-29T19:29:44.760Z,68.70
2017-07-29T19:32:12.258Z,68.70
2017-07-29T19:34:39.898Z,70.20
2017-07-29T19:37:08.140Z,71.10
2017-07-29T19:39:35.625Z,71.00
2017-07-29T19:42:03.861Z,71.30
2017-07-29T19:44:31.328Z,71.20
2017-07-29T19:46:58.828Z,72.70
2017-07-29T19:49:27.084Z,76.70
2017-07-29T19:51:54.587Z,76.70
2017-07-29T19:54:22.063Z,73.80
2017-07-29T19:56:49.564Z,75.20
2017-07-29T19:59:17.920Z,77.60
2017-07-29T20:01:45.404Z,77.50
2017-07-29T20:04:13.682Z,76.30
2017-07-29T20:06:41.971Z,75.60
2017-07-29T20:09:10.236Z,73.70
2017-07-29T20:11:38.467Z,74.30
2017-07-29T20:14:05.961Z,74.30
2017-07-29T20:16:33.445Z,76.00
2017-07-29T20:19:00.918Z,75.70
2017-07-29T20:21:28.444Z,76.10
2017-07-29T20:23:56.760Z,78.40
2017-07-29T20:26:24.227Z,78.30
2017-07-29T20:28:51.717Z,77.20
2017-07-29T20:31:19.207Z,76.50
2017-07-29T20:33:46.795Z,76.50
2017-07-29T20:36:14.292Z,76.40
2017-07-29T20:38:41.765Z,76.20
2017-07-29T20:41:09.244Z,77.30
2017-07-29T20:43:37.500Z,78.90
2017-07-29T20:46:05.004Z,78.90
2017-07-29T20:48:32.522Z,81.10
2017-07-29T20:51:00.767Z,83.90
2017-07-29T20:53:28.252Z,83.90
2017-07-29T20:55:56.506Z,84.50
2017-07-29T20:58:24.002Z,83.60
2017-07-29T21:00:52.309Z,83.30
2017-07-29T21:03:19.803Z,83.30
2017-07-29T21:05:47.276Z,85.10
2017-07-29T21:08:14.761Z,85.20
2017-07-29T21:10:42.245Z,85.20
2017-07-29T21:13:09.714Z,86.10
2017-07-29T21:15:37.216Z,85.20
2017-07-29T21:18:05.452Z,84.60
2017-07-29T21:20:32.944Z,84.60
2017-07-29T21:23:00.409Z,84.50
2017-07-29T21:25:28.676Z,84.80
2017-07-29T21:27:56.917Z,85.50
2017-07-29T21:30:24.460Z,85.50
2017-07-29T21:32:52.021Z,85.30
2017-07-29T21:35:19.485Z,85.30
2017-07-29T21:37:46.997Z,85.40
2017-07-29T21:40:15.259Z,86.80
2017-07-29T21:42:42.734Z,86.00
2017-07-29T21:45:10.984Z,86.80
2017-07-29T21:47:38.460Z,86.80
2017-07-29T21:50:06.716Z,86.80
2017-07-29T21:52:34.241Z,87.40
2017-07-29T21:55:01.713Z,89.30
2017-07-29T21:57:29.198Z,89.20
2017-07-29T21:59:56.668Z,91.30
2017-07-29T22:02:24.176Z,90.20
2017-07-29T22:04:51.664Z,91.20
2017-07-29T22:07:19.134Z,91.00
2017-07-29T22:09:46.616Z,90.60
2017-07-29T22:12:14.852Z,89.40
2017-07-29T22:14:42.376Z,89.40
2017-07-29T22:17:09.855Z,88.90
2017-07-29T22:19:37.347Z,88.90
2017-07-29T22:22:05.609Z,88.60
2017-07-29T22:24:33.086Z,87.80
2017-07-29T22:27:00.574Z,87.90
2017-07-29T22:29:28.053Z,87.60
2017-07-29T22:31:55.545Z,87.60
2017-07-29T22:34:23.040Z,87.10
2017-07-29T22:36:50.519Z,87.10
2017-07-29T22:39:18.038Z,87.40
2017-07-29T22:41:46.281Z,87.20
2017-07-29T22:44:13.751Z,87.20
2017-07-29T22:46:41.237Z,87.30
2017-07-29T22:49:09.716Z,87.40
2017-07-29T22:51:37.995Z,87.70
2017-07-29T22:54:05.468Z,87.70
2017-07-29T22:56:32.957Z,87.80
2017-07-29T22:59:00.447Z,88.00
2017-07-29T23:01:27.909Z,87.90
2017-07-29T23:03:55.393Z,88.00
2017-07-29T23:06:23.641Z,88.40
2017-07-29T23:08:51.158Z,88.40
2017-07-29T23:11:18.638Z,88.70
2017-07-29T23:13:46.111Z,88.90
2017-07-29T23:16:13.600Z,89.00
2017-07-29T23:18:41.852Z,89.10
2017-07-29T23:21:09.356Z,89.00
2017-07-29T23:23:36.836Z,89.90
2017-07-29T23:26:04.344Z,89.70
2017-07-29T23:28:32.581Z,90.40
2017-07-29T23:31:00.070Z,90.30
2017-07-29T23:33:28.327Z,90.30
2017-07-29T23:35:55.812Z,90.00
2017-07-29T23:38:24.075Z,89.40
2017-07-29T23:40:52.327Z,88.40
2017-07-29T23:43:19.835Z,88.80
2017-07-29T23:45:47.335Z,89.20
2017-07-29T23:48:14.805Z,89.70
2017-07-29T23:50:42.307Z,91.10
2017-07-29T23:53:10.543Z,91.70
2017-07-29T23:55:38.023Z,91.70
2017-07-29T23:58:05.513Z,91.60
